Skip Navigation Links
NOAA logo - Click to go to the NOAA homepage
NOAA's National Weather Service
Alaska Aviation Weather Unit
  NWS logo - Click to go to the NWS homepage
Left Navbar Graphic     21 AKDT = 05 GMT

   
NOAA is celebrating 200 years of science, service, and stewardship. Visit the NOAA 200th celebration Web site to learn more.
USA.gov is the U.S. Government's official Web portal to all Federal, state and local government Web resources and services.
Facebook
NWS on Facebook

Important Change Regarding the AAWU Web Presence

 

Over the last several months, the AAWU has been working to navigate its webpages to a nationally supported server. Security, as well as other needs, have necessitated the change.  In the process, we have made an effort to enhance the functionality of our website, as well as some of our products. As of June 27, 2017, aawu.arh.noaa.gov will be discontinued. The new AAWU web address is weather.gov/aawu. It is now live and will run in-parallel with the old site until it is discontinued. Please send any feedback or questions regarding the new webpages to nws.ar.aawu.webauthors@noaa.gov.  Thank you for your patience during this time of transition.
AAWU Home :: Display TAF Add Bookmark
TAF PASY 250430Z 2504/2604 30012KT 9999 BKN035 QNH2946INS
      BECMG 2505/2507 30015G20KT 9999 VCSH BKN007 OVC015
      QNH2952INS
      BECMG 2511/2512 28020G30KT 6000 -SHRA BR BKN004 OVC015
      610406
      510003 QNH2954INS TX08/2602Z TN04/2516Z LIMITED
      METWATCH 2504
      TIL 2510=
PASY 242305Z 30014KT 10SM SCT008 BKN012 OVC031 07/06 A2949=

SPECI PASY 242305Z 30014KT 10SM SCT008 BKN012 OVC031 07/06 A2949 RMK
AO2 WND DATA ESTMD $=

METAR PASY 242356Z 30014KT 10SM SCT008 BKN012 OVC031 07/06 A2949=

PASY 250005Z 30018KT 10SM SCT008 OVC029 08/06 A2949=

SPECI PASY 250005Z 30018KT 10SM SCT008 OVC029 08/06 A2949 RMK AO2
SCT008 V BKN WND DATA ESTMD $=

METAR PASY 250033Z AUTO 30018KT 10SM BKN006 BKN022 OVC033 08/06
     A2949=

METAR PASY 250041Z AUTO 30018KT 10SM SCT006 BKN010 OVC033 08/06
     A2949=

PASY 250048Z AUTO 30018KT 10SM BKN006 BKN020 OVC033 08/06
     A2949=

METAR PASY 250056Z AUTO 30018KT 10SM BKN008 OVC014 08/06 A2949=

METAR PASY 250156Z AUTO 10SM BKN008 OVC017 12/ A2951=

PASY 250213Z AUTO 10SM SCT010 BKN014 13/ A2950=

PASY 250221Z AUTO 10SM FEW008 BKN014 BKN034 13/ A2950=

PASY 250238Z AUTO 10SM FEW014 BKN034 13/ A2951=

METAR PASY 250256Z AUTO 10SM SCT034 13/ A2951=

PASY 250321Z AUTO 10SM SCT011 SCT015 BKN021 12/ A2952=

PASY 250326Z AUTO 9SM SCT011 BKN014 OVC030 11/ A2952=

PASY 250337Z AUTO 10SM FEW011 BKN024 OVC029 11/ A2952=

PASY 250348Z AUTO 10SM FEW008 BKN023 BKN030 12/ A2952=

METAR PASY 250356Z AUTO 10SM FEW008 SCT025 BKN030 12/ A2952=

PASY 250454Z AUTO 10SM BKN014 BKN036 12/ A2953=

METAR PASY 250456Z AUTO 10SM SCT014 BKN038 12/ A2953 RMK AO2 SLP999
T0122 TSNO $=


NOAA's National Weather Service
Alaska Aviation Weather Unit
6930 Sand Lake Road
Anchorage, AK 99502-1845
Disclaimer
Credits
Glossary
Privacy Policy
About Us
Career Opportunities
Contact AAWU Internet Services Site last modified: April, 17th 2012